sensor_id;sensor_type;location;lat;lon;timestamp;temperature;humidity
11091;DHT22;5599;52.210;21.046;2022-10-15T00:00:14;10.30;99.90
11091;DHT22;5599;52.210;21.046;2022-10-15T00:02:43;10.30;99.90
11091;DHT22;5599;52.210;21.046;2022-10-15T00:05:12;10.40;99.90
11091;DHT22;5599;52.210;21.046;2022-10-15T00:07:42;10.30;99.90
11091;DHT22;5599;52.210;21.046;2022-10-15T00:10:12;10.20;99.90
11091;DHT22;5599;52.210;21.046;2022-10-15T00:12:41;10.20;99.90
11091;DHT22;5599;52.210;21.046;2022-10-15T00:15:11;10.20;99.90
11091;DHT22;5599;52.210;21.046;2022-10-15T00:17:41;10.20;99.90
11091;DHT22;5599;52.210;21.046;2022-10-15T00:20:11;10.20;99.90
11091;DHT22;5599;52.210;21.046;2022-10-15T00:22:41;10.20;99.90
11091;DHT22;5599;52.210;21.046;2022-10-15T00:25:11;10.20;99.90
11091;DHT22;5599;52.210;21.046;2022-10-15T00:27:40;10.20;99.90
11091;DHT22;5599;52.210;21.046;2022-10-15T00:30:10;10.10;99.90
11091;DHT22;5599;52.210;21.046;2022-10-15T00:32:39;10.20;99.90
11091;DHT22;5599;52.210;21.046;2022-10-15T00:35:08;10.10;99.90
11091;DHT22;5599;52.210;21.046;2022-10-15T00:37:38;10.10;99.90
11091;DHT22;5599;52.210;21.046;2022-10-15T00:40:10;10.10;99.90
11091;DHT22;5599;52.210;21.046;2022-10-15T00:42:41;10.10;99.90
11091;DHT22;5599;52.210;21.046;2022-10-15T00:45:13;10.10;99.90
11091;DHT22;5599;52.210;21.046;2022-10-15T00:47:45;10.00;99.90
11091;DHT22;5599;52.210;21.046;2022-10-15T00:50:19;10.00;99.90
11091;DHT22;5599;52.210;21.046;2022-10-15T00:52:58;10.00;99.90
11091;DHT22;5599;52.210;21.046;2022-10-15T00:55:32;10.00;99.90
11091;DHT22;5599;52.210;21.046;2022-10-15T00:58:05;10.00;99.90
11091;DHT22;5599;52.210;21.046;2022-10-15T01:00:36;10.00;99.90
11091;DHT22;5599;52.210;21.046;2022-10-15T01:03:06;10.00;99.90
11091;DHT22;5599;52.210;21.046;2022-10-15T01:05:37;9.90;99.90
11091;DHT22;5599;52.210;21.046;2022-10-15T01:08:10;9.80;99.90
11091;DHT22;5599;52.210;21.046;2022-10-15T01:10:47;9.90;99.90
11091;DHT22;5599;52.210;21.046;2022-10-15T01:13:24;9.90;99.90
11091;DHT22;5599;52.210;21.046;2022-10-15T01:16:02;9.90;99.90
11091;DHT22;5599;52.210;21.046;2022-10-15T01:18:39;9.80;99.90
11091;DHT22;5599;52.210;21.046;2022-10-15T01:21:15;9.80;99.90
11091;DHT22;5599;52.210;21.046;2022-10-15T01:27:26;9.80;99.90
11091;DHT22;5599;52.210;21.046;2022-10-15T01:30:19;9.70;99.90
11091;DHT22;5599;52.210;21.046;2022-10-15T01:33:17;9.70;99.90
11091;DHT22;5599;52.210;21.046;2022-10-15T01:35:52;9.60;99.90
11091;DHT22;5599;52.210;21.046;2022-10-15T01:38:27;9.70;99.90
11091;DHT22;5599;52.210;21.046;2022-10-15T01:41:02;9.60;99.90
11091;DHT22;5599;52.210;21.046;2022-10-15T01:43:36;9.60;99.90
11091;DHT22;5599;52.210;21.046;2022-10-15T01:46:30;9.70;99.90
11091;DHT22;5599;52.210;21.046;2022-10-15T01:49:06;9.70;99.90
11091;DHT22;5599;52.210;21.046;2022-10-15T01:51:37;9.60;99.90
11091;DHT22;5599;52.210;21.046;2022-10-15T01:54:17;9.50;99.90
11091;DHT22;5599;52.210;21.046;2022-10-15T01:56:48;9.50;99.90
11091;DHT22;5599;52.210;21.046;2022-10-15T01:59:22;9.40;99.90
11091;DHT22;5599;52.210;21.046;2022-10-15T02:01:54;9.40;99.90
11091;DHT22;5599;52.210;21.046;2022-10-15T02:04:26;9.50;99.90
11091;DHT22;5599;52.210;21.046;2022-10-15T02:07:01;9.50;99.90
11091;DHT22;5599;52.210;21.046;2022-10-15T02:09:40;9.60;99.90
11091;DHT22;5599;52.210;21.046;2022-10-15T02:12:30;9.60;99.90
11091;DHT22;5599;52.210;21.046;2022-10-15T02:15:09;9.60;99.90
11091;DHT22;5599;52.210;21.046;2022-10-15T02:17:45;9.60;99.90
11091;DHT22;5599;52.210;21.046;2022-10-15T02:20:25;9.60;99.90
11091;DHT22;5599;52.210;21.046;2022-10-15T02:23:02;9.70;99.90
11091;DHT22;5599;52.210;21.046;2022-10-15T02:25:34;9.70;99.90
11091;DHT22;5599;52.210;21.046;2022-10-15T02:28:08;9.70;99.90
11091;DHT22;5599;52.210;21.046;2022-10-15T02:30:40;9.60;99.90
11091;DHT22;5599;52.210;21.046;2022-10-15T02:33:13;9.60;99.90
11091;DHT22;5599;52.210;21.046;2022-10-15T02:35:44;9.60;99.90
11091;DHT22;5599;52.210;21.046;2022-10-15T02:38:18;9.60;99.90
11091;DHT22;5599;52.210;21.046;2022-10-15T02:40:48;9.50;99.90
11091;DHT22;5599;52.210;21.046;2022-10-15T02:43:19;9.40;99.90
11091;DHT22;5599;52.210;21.046;2022-10-15T02:45:50;9.40;99.90
11091;DHT22;5599;52.210;21.046;2022-10-15T02:48:21;9.30;99.90
11091;DHT22;5599;52.210;21.046;2022-10-15T02:50:51;9.30;99.90
11091;DHT22;5599;52.210;21.046;2022-10-15T02:53:20;9.20;99.90
11091;DHT22;5599;52.210;21.046;2022-10-15T02:55:49;9.40;99.90
11091;DHT22;5599;52.210;21.046;2022-10-15T02:58:18;9.40;99.90
11091;DHT22;5599;52.210;21.046;2022-10-15T03:00:48;9.30;99.90
11091;DHT22;5599;52.210;21.046;2022-10-15T03:03:17;9.40;99.90
11091;DHT22;5599;52.210;21.046;2022-10-15T03:05:49;9.40;99.90
11091;DHT22;5599;52.210;21.046;2022-10-15T03:08:18;9.40;99.90
11091;DHT22;5599;52.210;21.046;2022-10-15T03:10:47;9.40;99.90
11091;DHT22;5599;52.210;21.046;2022-10-15T03:13:16;9.40;99.90
11091;DHT22;5599;52.210;21.046;2022-10-15T03:15:50;9.50;99.90
11091;DHT22;5599;52.210;21.046;2022-10-15T03:18:21;9.40;99.90
11091;DHT22;5599;52.210;21.046;2022-10-15T03:20:54;9.40;99.90
11091;DHT22;5599;52.210;21.046;2022-10-15T03:23:24;9.40;99.90
11091;DHT22;5599;52.210;21.046;2022-10-15T03:26:03;9.40;99.90
11091;DHT22;5599;52.210;21.046;2022-10-15T03:28:33;9.40;99.90
11091;DHT22;5599;52.210;21.046;2022-10-15T03:31:02;9.30;99.90
11091;DHT22;5599;52.210;21.046;2022-10-15T03:33:31;9.40;99.90
11091;DHT22;5599;52.210;21.046;2022-10-15T03:36:03;9.40;99.90
11091;DHT22;5599;52.210;21.046;2022-10-15T03:38:34;9.30;99.90
11091;DHT22;5599;52.210;21.046;2022-10-15T03:41:03;9.40;99.90
11091;DHT22;5599;52.210;21.046;2022-10-15T03:43:38;9.40;99.90
11091;DHT22;5599;52.210;21.046;2022-10-15T03:46:11;9.40;99.90
11091;DHT22;5599;52.210;21.046;2022-10-15T03:48:42;9.40;99.90
11091;DHT22;5599;52.210;21.046;2022-10-15T03:51:16;9.30;99.90
11091;DHT22;5599;52.210;21.046;2022-10-15T03:53:56;9.30;99.90
11091;DHT22;5599;52.210;21.046;2022-10-15T03:56:25;9.20;99.90
11091;DHT22;5599;52.210;21.046;2022-10-15T03:59:09;9.30;99.90
11091;DHT22;5599;52.210;21.046;2022-10-15T04:01:38;9.30;99.90
11091;DHT22;5599;52.210;21.046;2022-10-15T04:04:10;9.30;99.90
11091;DHT22;5599;52.210;21.046;2022-10-15T04:06:40;9.30;99.90
11091;DHT22;5599;52.210;21.046;2022-10-15T04:09:14;9.30;99.90
11091;DHT22;5599;52.210;21.046;2022-10-15T04:11:43;9.30;99.90
11091;DHT22;5599;52.210;21.046;2022-10-15T04:14:16;9.30;99.90
11091;DHT22;5599;52.210;21.046;2022-10-15T04:16:46;9.20;99.90
11091;DHT22;5599;52.210;21.046;2022-10-15T04:19:19;9.20;99.90
11091;DHT22;5599;52.210;21.046;2022-10-15T04:22:13;9.20;99.90
11091;DHT22;5599;52.210;21.046;2022-10-15T04:24:56;9.20;99.90
11091;DHT22;5599;52.210;21.046;2022-10-15T04:27:27;9.20;99.90
11091;DHT22;5599;52.210;21.046;2022-10-15T04:30:11;9.20;99.90
11091;DHT22;5599;52.210;21.046;2022-10-15T04:32:45;9.20;99.90
11091;DHT22;5599;52.210;21.046;2022-10-15T04:35:15;9.20;99.90
11091;DHT22;5599;52.210;21.046;2022-10-15T04:37:58;9.30;99.90
11091;DHT22;5599;52.210;21.046;2022-10-15T04:40:42;9.30;99.90
11091;DHT22;5599;52.210;21.046;2022-10-15T04:43:12;9.30;99.90
11091;DHT22;5599;52.210;21.046;2022-10-15T04:45:42;9.30;99.90
11091;DHT22;5599;52.210;21.046;2022-10-15T04:48:16;9.30;99.90
11091;DHT22;5599;52.210;21.046;2022-10-15T04:50:45;9.30;99.90
11091;DHT22;5599;52.210;21.046;2022-10-15T04:53:22;9.40;99.90
11091;DHT22;5599;52.210;21.046;2022-10-15T04:55:52;9.40;99.90
11091;DHT22;5599;52.210;21.046;2022-10-15T04:58:21;9.50;99.90
11091;DHT22;5599;52.210;21.046;2022-10-15T05:00:51;9.50;99.90
11091;DHT22;5599;52.210;21.046;2022-10-15T05:03:42;9.60;99.90
11091;DHT22;5599;52.210;21.046;2022-10-15T05:06:13;9.50;99.90
11091;DHT22;5599;52.210;21.046;2022-10-15T05:08:44;9.50;99.90
11091;DHT22;5599;52.210;21.046;2022-10-15T05:11:24;9.60;99.90
11091;DHT22;5599;52.210;21.046;2022-10-15T05:13:56;9.60;99.90
11091;DHT22;5599;52.210;21.046;2022-10-15T05:16:28;9.60;99.90
11091;DHT22;5599;52.210;21.046;2022-10-15T05:19:01;9.60;99.90
11091;DHT22;5599;52.210;21.046;2022-10-15T05:21:32;9.60;99.90
11091;DHT22;5599;52.210;21.046;2022-10-15T05:24:06;9.60;99.90
11091;DHT22;5599;52.210;21.046;2022-10-15T05:27:01;9.70;99.90
11091;DHT22;5599;52.210;21.046;2022-10-15T05:29:32;9.70;99.90
11091;DHT22;5599;52.210;21.046;2022-10-15T05:32:02;9.70;99.90
11091;DHT22;5599;52.210;21.046;2022-10-15T05:34:31;9.70;99.90
11091;DHT22;5599;52.210;21.046;2022-10-15T05:37:07;9.60;99.90
11091;DHT22;5599;52.210;21.046;2022-10-15T05:39:40;9.70;99.90
11091;DHT22;5599;52.210;21.046;2022-10-15T05:42:10;9.70;99.90
11091;DHT22;5599;52.210;21.046;2022-10-15T05:44:54;9.80;99.90
11091;DHT22;5599;52.210;21.046;2022-10-15T05:47:23;9.90;99.90
11091;DHT22;5599;52.210;21.046;2022-10-15T05:50:10;10.00;99.90
11091;DHT22;5599;52.210;21.046;2022-10-15T05:52:44;10.10;99.90
11091;DHT22;5599;52.210;21.046;2022-10-15T05:55:20;10.20;99.90
11091;DHT22;5599;52.210;21.046;2022-10-15T05:57:49;10.30;99.90
11091;DHT22;5599;52.210;21.046;2022-10-15T06:00:18;10.40;99.90
11091;DHT22;5599;52.210;21.046;2022-10-15T06:02:51;10.50;99.90
11091;DHT22;5599;52.210;21.046;2022-10-15T06:05:25;10.70;99.90
11091;DHT22;5599;52.210;21.046;2022-10-15T06:07:56;10.80;99.90
11091;DHT22;5599;52.210;21.046;2022-10-15T06:10:26;11.00;99.90
11091;DHT22;5599;52.210;21.046;2022-10-15T06:12:55;11.10;99.90
11091;DHT22;5599;52.210;21.046;2022-10-15T06:15:25;11.20;99.90
11091;DHT22;5599;52.210;21.046;2022-10-15T06:17:54;11.30;99.90
11091;DHT22;5599;52.210;21.046;2022-10-15T06:20:23;11.50;99.90
11091;DHT22;5599;52.210;21.046;2022-10-15T06:22:56;11.70;99.90
11091;DHT22;5599;52.210;21.046;2022-10-15T06:25:27;12.00;42.80
11091;DHT22;5599;52.210;21.046;2022-10-15T06:28:00;12.40;1.00
11091;DHT22;5599;52.210;21.046;2022-10-15T06:30:38;12.70;1.00
11091;DHT22;5599;52.210;21.046;2022-10-15T06:33:07;13.00;1.00
11091;DHT22;5599;52.210;21.046;2022-10-15T06:35:38;13.50;1.00
11091;DHT22;5599;52.210;21.046;2022-10-15T06:38:07;13.90;62.60
11091;DHT22;5599;52.210;21.046;2022-10-15T06:40:38;14.30;72.00
11091;DHT22;5599;52.210;21.046;2022-10-15T06:43:09;14.60;1.00
11091;DHT22;5599;52.210;21.046;2022-10-15T06:45:40;15.00;1.00
11091;DHT22;5599;52.210;21.046;2022-10-15T06:48:18;15.20;11.90
11091;DHT22;5599;52.210;21.046;2022-10-15T06:50:48;15.20;99.90
11091;DHT22;5599;52.210;21.046;2022-10-15T06:53:17;15.40;1.00
11091;DHT22;5599;52.210;21.046;2022-10-15T06:55:47;15.60;1.00
11091;DHT22;5599;52.210;21.046;2022-10-15T06:58:17;15.90;50.00
11091;DHT22;5599;52.210;21.046;2022-10-15T07:00:46;16.00;1.00
11091;DHT22;5599;52.210;21.046;2022-10-15T07:03:15;16.00;99.90
11091;DHT22;5599;52.210;21.046;2022-10-15T07:05:44;16.20;99.90
11091;DHT22;5599;52.210;21.046;2022-10-15T07:08:13;16.10;1.00
11091;DHT22;5599;52.210;21.046;2022-10-15T07:10:47;16.00;1.00
11091;DHT22;5599;52.210;21.046;2022-10-15T07:13:16;15.80;1.00
11091;DHT22;5599;52.210;21.046;2022-10-15T07:15:48;15.80;1.00
11091;DHT22;5599;52.210;21.046;2022-10-15T07:18:20;15.90;99.90
11091;DHT22;5599;52.210;21.046;2022-10-15T07:20:49;16.40;99.90
11091;DHT22;5599;52.210;21.046;2022-10-15T07:23:18;16.80;99.90
11091;DHT22;5599;52.210;21.046;2022-10-15T07:25:56;16.90;1.00
11091;DHT22;5599;52.210;21.046;2022-10-15T07:28:25;17.00;1.00
11091;DHT22;5599;52.210;21.046;2022-10-15T07:31:00;17.00;99.90
11091;DHT22;5599;52.210;21.046;2022-10-15T07:33:29;16.90;1.00
11091;DHT22;5599;52.210;21.046;2022-10-15T07:36:02;17.10;1.00
11091;DHT22;5599;52.210;21.046;2022-10-15T07:38:31;17.20;1.00
11091;DHT22;5599;52.210;21.046;2022-10-15T07:41:03;17.50;1.00
11091;DHT22;5599;52.210;21.046;2022-10-15T07:43:41;17.90;99.90
11091;DHT22;5599;52.210;21.046;2022-10-15T07:46:12;18.20;1.00
11091;DHT22;5599;52.210;21.046;2022-10-15T07:48:41;18.00;1.00
11091;DHT22;5599;52.210;21.046;2022-10-15T07:51:11;17.90;99.90
11091;DHT22;5599;52.210;21.046;2022-10-15T07:53:42;17.60;1.00
11091;DHT22;5599;52.210;21.046;2022-10-15T07:56:14;17.10;1.00
11091;DHT22;5599;52.210;21.046;2022-10-15T07:58:45;16.60;99.90
11091;DHT22;5599;52.210;21.046;2022-10-15T08:01:19;16.10;57.70
11091;DHT22;5599;52.210;21.046;2022-10-15T08:03:48;15.80;1.00
11091;DHT22;5599;52.210;21.046;2022-10-15T08:06:18;15.30;1.00
11091;DHT22;5599;52.210;21.046;2022-10-15T08:08:47;15.30;1.00
11091;DHT22;5599;52.210;21.046;2022-10-15T08:11:18;15.00;99.90
11091;DHT22;5599;52.210;21.046;2022-10-15T08:13:47;15.00;99.90
11091;DHT22;5599;52.210;21.046;2022-10-15T08:16:16;14.80;99.90
11091;DHT22;5599;52.210;21.046;2022-10-15T08:18:57;14.50;99.90
11091;DHT22;5599;52.210;21.046;2022-10-15T08:21:26;14.60;99.90
11091;DHT22;5599;52.210;21.046;2022-10-15T08:23:56;15.00;1.00
11091;DHT22;5599;52.210;21.046;2022-10-15T08:26:34;15.40;1.00
11091;DHT22;5599;52.210;21.046;2022-10-15T08:29:04;15.80;53.50
11091;DHT22;5599;52.210;21.046;2022-10-15T08:31:33;15.90;99.90
11091;DHT22;5599;52.210;21.046;2022-10-15T08:34:02;15.90;99.90
11091;DHT22;5599;52.210;21.046;2022-10-15T08:36:31;15.80;1.00
11091;DHT22;5599;52.210;21.046;2022-10-15T08:39:01;15.90;1.00
11091;DHT22;5599;52.210;21.046;2022-10-15T08:41:38;16.20;1.00
11091;DHT22;5599;52.210;21.046;2022-10-15T08:44:14;16.30;1.00
11091;DHT22;5599;52.210;21.046;2022-10-15T08:46:49;16.70;1.00
11091;DHT22;5599;52.210;21.046;2022-10-15T08:49:30;17.10;1.00
11091;DHT22;5599;52.210;21.046;2022-10-15T08:52:07;17.50;1.00
11091;DHT22;5599;52.210;21.046;2022-10-15T08:54:44;18.00;99.90
11091;DHT22;5599;52.210;21.046;2022-10-15T08:57:23;18.20;1.00
11091;DHT22;5599;52.210;21.046;2022-10-15T09:00:02;18.50;1.00
11091;DHT22;5599;52.210;21.046;2022-10-15T09:02:36;18.70;99.90
11091;DHT22;5599;52.210;21.046;2022-10-15T09:05:21;18.70;99.90
11091;DHT22;5599;52.210;21.046;2022-10-15T09:07:55;18.80;64.30
11091;DHT22;5599;52.210;21.046;2022-10-15T09:10:35;19.00;1.00
11091;DHT22;5599;52.210;21.046;2022-10-15T09:13:11;18.90;1.00
11091;DHT22;5599;52.210;21.046;2022-10-15T09:15:47;18.80;99.90
11091;DHT22;5599;52.210;21.046;2022-10-15T09:18:21;18.70;1.00
11091;DHT22;5599;52.210;21.046;2022-10-15T09:20:52;18.60;1.00
11091;DHT22;5599;52.210;21.046;2022-10-15T09:23:24;18.70;30.10
11091;DHT22;5599;52.210;21.046;2022-10-15T09:25:58;18.90;1.00
11091;DHT22;5599;52.210;21.046;2022-10-15T09:28:37;18.90;99.90
11091;DHT22;5599;52.210;21.046;2022-10-15T09:31:08;18.90;1.00
11091;DHT22;5599;52.210;21.046;2022-10-15T09:33:44;18.60;66.30
11091;DHT22;5599;52.210;21.046;2022-10-15T09:36:32;18.20;1.00
11091;DHT22;5599;52.210;21.046;2022-10-15T09:39:15;18.20;1.00
11091;DHT22;5599;52.210;21.046;2022-10-15T09:42:00;18.10;99.90
11091;DHT22;5599;52.210;21.046;2022-10-15T09:44:36;18.20;1.00
11091;DHT22;5599;52.210;21.046;2022-10-15T09:47:15;18.30;99.90
11091;DHT22;5599;52.210;21.046;2022-10-15T09:49:46;18.20;99.90
11091;DHT22;5599;52.210;21.046;2022-10-15T09:52:20;18.20;99.90
11091;DHT22;5599;52.210;21.046;2022-10-15T09:55:01;18.20;1.00
11091;DHT22;5599;52.210;21.046;2022-10-15T09:57:32;18.20;1.00
11091;DHT22;5599;52.210;21.046;2022-10-15T10:00:08;18.10;1.00
11091;DHT22;5599;52.210;21.046;2022-10-15T10:02:42;18.10;1.00
11091;DHT22;5599;52.210;21.046;2022-10-15T10:05:25;18.10;99.90
11091;DHT22;5599;52.210;21.046;2022-10-15T10:08:07;18.20;99.90
11091;DHT22;5599;52.210;21.046;2022-10-15T10:10:37;18.20;99.90
11091;DHT22;5599;52.210;21.046;2022-10-15T10:13:22;18.30;1.00
11091;DHT22;5599;52.210;21.046;2022-10-15T10:15:54;18.20;99.90
11091;DHT22;5599;52.210;21.046;2022-10-15T10:18:26;18.20;1.00
11091;DHT22;5599;52.210;21.046;2022-10-15T10:20:56;18.20;1.00
11091;DHT22;5599;52.210;21.046;2022-10-15T10:23:30;18.20;1.00
11091;DHT22;5599;52.210;21.046;2022-10-15T10:26:03;18.20;1.00
11091;DHT22;5599;52.210;21.046;2022-10-15T10:28:36;18.30;1.00
11091;DHT22;5599;52.210;21.046;2022-10-15T10:31:12;18.30;1.00
11091;DHT22;5599;52.210;21.046;2022-10-15T10:33:44;18.60;99.90
11091;DHT22;5599;52.210;21.046;2022-10-15T10:36:23;18.60;53.20
11091;DHT22;5599;52.210;21.046;2022-10-15T10:39:01;18.60;73.70
11091;DHT22;5599;52.210;21.046;2022-10-15T10:41:49;18.70;1.00
11091;DHT22;5599;52.210;21.046;2022-10-15T10:44:22;18.70;1.00
11091;DHT22;5599;52.210;21.046;2022-10-15T10:47:10;18.80;1.00
11091;DHT22;5599;52.210;21.046;2022-10-15T10:49:42;18.90;1.00
11091;DHT22;5599;52.210;21.046;2022-10-15T10:52:25;19.00;99.90
11091;DHT22;5599;52.210;21.046;2022-10-15T10:54:58;19.10;99.90
11091;DHT22;5599;52.210;21.046;2022-10-15T10:57:40;19.10;99.90
11091;DHT22;5599;52.210;21.046;2022-10-15T11:00:14;19.20;99.90
11091;DHT22;5599;52.210;21.046;2022-10-15T11:02:50;19.20;99.90
11091;DHT22;5599;52.210;21.046;2022-10-15T11:05:25;19.30;99.90
11091;DHT22;5599;52.210;21.046;2022-10-15T11:08:00;19.30;23.30
11091;DHT22;5599;52.210;21.046;2022-10-15T11:10:34;19.40;1.00
11091;DHT22;5599;52.210;21.046;2022-10-15T11:13:17;19.50;1.00
11091;DHT22;5599;52.210;21.046;2022-10-15T11:15:59;19.70;1.00
11091;DHT22;5599;52.210;21.046;2022-10-15T11:18:42;19.60;1.00
11091;DHT22;5599;52.210;21.046;2022-10-15T11:21:21;19.80;1.00
11091;DHT22;5599;52.210;21.046;2022-10-15T11:24:09;19.80;1.00
11091;DHT22;5599;52.210;21.046;2022-10-15T11:26:55;19.90;1.00
11091;DHT22;5599;52.210;21.046;2022-10-15T11:29:49;20.00;1.00
11091;DHT22;5599;52.210;21.046;2022-10-15T11:32:28;20.10;1.00
11091;DHT22;5599;52.210;21.046;2022-10-15T11:35:34;20.00;1.00
11091;DHT22;5599;52.210;21.046;2022-10-15T11:38:29;19.90;46.50
11091;DHT22;5599;52.210;21.046;2022-10-15T11:41:12;19.90;1.00
11091;DHT22;5599;52.210;21.046;2022-10-15T11:43:56;20.00;1.00
11091;DHT22;5599;52.210;21.046;2022-10-15T11:46:32;20.10;1.00
11091;DHT22;5599;52.210;21.046;2022-10-15T11:49:19;20.20;1.00
11091;DHT22;5599;52.210;21.046;2022-10-15T11:52:06;20.20;1.00
11091;DHT22;5599;52.210;21.046;2022-10-15T11:54:42;20.30;95.60
11091;DHT22;5599;52.210;21.046;2022-10-15T11:57:15;20.30;99.90
11091;DHT22;5599;52.210;21.046;2022-10-15T11:59:50;20.10;1.00
11091;DHT22;5599;52.210;21.046;2022-10-15T12:02:23;20.00;99.90
11091;DHT22;5599;52.210;21.046;2022-10-15T12:04:59;19.90;1.00
11091;DHT22;5599;52.210;21.046;2022-10-15T12:07:36;19.80;99.90
11091;DHT22;5599;52.210;21.046;2022-10-15T12:10:20;19.80;99.90
11091;DHT22;5599;52.210;21.046;2022-10-15T12:13:00;19.80;1.00
11091;DHT22;5599;52.210;21.046;2022-10-15T12:15:38;19.70;99.90
11091;DHT22;5599;52.210;21.046;2022-10-15T12:18:14;19.70;99.90
11091;DHT22;5599;52.210;21.046;2022-10-15T12:20:49;19.80;1.00
11091;DHT22;5599;52.210;21.046;2022-10-15T12:23:25;19.70;76.60
11091;DHT22;5599;52.210;21.046;2022-10-15T12:26:26;19.70;99.90
11091;DHT22;5599;52.210;21.046;2022-10-15T12:28:58;19.80;99.90
11091;DHT22;5599;52.210;21.046;2022-10-15T12:31:46;19.80;1.00
11091;DHT22;5599;52.210;21.046;2022-10-15T12:34:27;19.80;1.00
11091;DHT22;5599;52.210;21.046;2022-10-15T12:37:02;19.80;99.90
11091;DHT22;5599;52.210;21.046;2022-10-15T12:39:33;19.70;1.00
11091;DHT22;5599;52.210;21.046;2022-10-15T12:42:25;19.60;56.20
11091;DHT22;5599;52.210;21.046;2022-10-15T12:44:57;19.50;99.90
11091;DHT22;5599;52.210;21.046;2022-10-15T12:47:46;19.50;99.90
11091;DHT22;5599;52.210;21.046;2022-10-15T12:50:19;19.50;1.00
11091;DHT22;5599;52.210;21.046;2022-10-15T12:52:57;19.40;99.90
11091;DHT22;5599;52.210;21.046;2022-10-15T12:55:33;19.30;99.90
11091;DHT22;5599;52.210;21.046;2022-10-15T12:58:05;19.30;99.90
11091;DHT22;5599;52.210;21.046;2022-10-15T13:00:39;19.30;99.90
11091;DHT22;5599;52.210;21.046;2022-10-15T13:03:18;19.30;99.90
11091;DHT22;5599;52.210;21.046;2022-10-15T13:05:49;19.30;99.90
11091;DHT22;5599;52.210;21.046;2022-10-15T13:08:33;19.30;1.00
11091;DHT22;5599;52.210;21.046;2022-10-15T13:11:04;19.40;1.00
11091;DHT22;5599;52.210;21.046;2022-10-15T13:13:34;19.40;99.90
11091;DHT22;5599;52.210;21.046;2022-10-15T13:16:06;19.30;1.00
11091;DHT22;5599;52.210;21.046;2022-10-15T13:18:38;19.30;99.90
11091;DHT22;5599;52.210;21.046;2022-10-15T13:21:09;19.30;99.90
11091;DHT22;5599;52.210;21.046;2022-10-15T13:23:45;19.30;99.90
11091;DHT22;5599;52.210;21.046;2022-10-15T13:26:21;19.30;1.00
11091;DHT22;5599;52.210;21.046;2022-10-15T13:28:55;19.30;99.90
11091;DHT22;5599;52.210;21.046;2022-10-15T13:31:28;19.30;99.90
11091;DHT22;5599;52.210;21.046;2022-10-15T13:33:59;19.40;1.00
11091;DHT22;5599;52.210;21.046;2022-10-15T13:36:34;19.40;99.90
11091;DHT22;5599;52.210;21.046;2022-10-15T13:39:05;19.40;99.90
11091;DHT22;5599;52.210;21.046;2022-10-15T13:41:37;19.40;99.90
11091;DHT22;5599;52.210;21.046;2022-10-15T13:44:19;19.50;27.80
11091;DHT22;5599;52.210;21.046;2022-10-15T13:46:49;19.40;1.00
11091;DHT22;5599;52.210;21.046;2022-10-15T13:49:18;19.40;99.90
11091;DHT22;5599;52.210;21.046;2022-10-15T13:51:52;19.30;95.70
11091;DHT22;5599;52.210;21.046;2022-10-15T13:54:23;19.20;26.70
11091;DHT22;5599;52.210;21.046;2022-10-15T13:56:56;19.20;99.90
11091;DHT22;5599;52.210;21.046;2022-10-15T13:59:28;19.20;99.90
11091;DHT22;5599;52.210;21.046;2022-10-15T14:02:00;19.20;1.00
11091;DHT22;5599;52.210;21.046;2022-10-15T14:04:31;19.20;1.00
11091;DHT22;5599;52.210;21.046;2022-10-15T14:07:02;19.20;99.90
11091;DHT22;5599;52.210;21.046;2022-10-15T14:09:33;19.20;99.90
11091;DHT22;5599;52.210;21.046;2022-10-15T14:12:06;19.10;1.00
11091;DHT22;5599;52.210;21.046;2022-10-15T14:14:37;19.10;99.90
11091;DHT22;5599;52.210;21.046;2022-10-15T14:17:10;19.10;99.90
11091;DHT22;5599;52.210;21.046;2022-10-15T14:19:47;19.20;1.00
11091;DHT22;5599;52.210;21.046;2022-10-15T14:22:38;19.20;31.00
11091;DHT22;5599;52.210;21.046;2022-10-15T14:25:08;19.20;1.00
11091;DHT22;5599;52.210;21.046;2022-10-15T14:27:44;19.20;1.00
11091;DHT22;5599;52.210;21.046;2022-10-15T14:30:18;19.20;99.90
11091;DHT22;5599;52.210;21.046;2022-10-15T14:32:49;19.20;1.00
11091;DHT22;5599;52.210;21.046;2022-10-15T14:35:23;19.10;1.00
11091;DHT22;5599;52.210;21.046;2022-10-15T14:38:03;19.10;99.90
11091;DHT22;5599;52.210;21.046;2022-10-15T14:40:33;19.00;1.00
11091;DHT22;5599;52.210;21.046;2022-10-15T14:43:05;18.90;99.90
11091;DHT22;5599;52.210;21.046;2022-10-15T14:45:39;19.00;15.10
11091;DHT22;5599;52.210;21.046;2022-10-15T14:48:11;18.90;1.00
11091;DHT22;5599;52.210;21.046;2022-10-15T14:50:44;18.80;1.00
11091;DHT22;5599;52.210;21.046;2022-10-15T14:53:17;18.80;1.00
11091;DHT22;5599;52.210;21.046;2022-10-15T14:55:50;18.80;1.00
11091;DHT22;5599;52.210;21.046;2022-10-15T14:58:23;18.80;1.00
11091;DHT22;5599;52.210;21.046;2022-10-15T15:00:57;18.80;99.90
11091;DHT22;5599;52.210;21.046;2022-10-15T15:03:30;18.70;99.90
11091;DHT22;5599;52.210;21.046;2022-10-15T15:05:59;18.70;99.90
11091;DHT22;5599;52.210;21.046;2022-10-15T15:08:29;18.70;99.90
11091;DHT22;5599;52.210;21.046;2022-10-15T15:11:01;18.70;22.70
11091;DHT22;5599;52.210;21.046;2022-10-15T15:13:37;18.80;99.90
11091;DHT22;5599;52.210;21.046;2022-10-15T15:16:08;18.60;99.90
11091;DHT22;5599;52.210;21.046;2022-10-15T15:18:39;18.70;99.90
11091;DHT22;5599;52.210;21.046;2022-10-15T15:21:12;18.60;1.00
11091;DHT22;5599;52.210;21.046;2022-10-15T15:23:42;18.50;1.00
11091;DHT22;5599;52.210;21.046;2022-10-15T15:26:12;18.50;1.00
11091;DHT22;5599;52.210;21.046;2022-10-15T15:28:42;18.40;2.10
11091;DHT22;5599;52.210;21.046;2022-10-15T15:31:13;18.40;1.00
11091;DHT22;5599;52.210;21.046;2022-10-15T15:33:44;18.50;1.00
11091;DHT22;5599;52.210;21.046;2022-10-15T15:36:17;18.40;1.00
11091;DHT22;5599;52.210;21.046;2022-10-15T15:38:49;18.40;1.00
11091;DHT22;5599;52.210;21.046;2022-10-15T15:41:21;18.40;99.90
11091;DHT22;5599;52.210;21.046;2022-10-15T15:43:53;18.30;1.00
11091;DHT22;5599;52.210;21.046;2022-10-15T15:46:22;18.30;1.00
11091;DHT22;5599;52.210;21.046;2022-10-15T15:48:51;18.30;1.00
11091;DHT22;5599;52.210;21.046;2022-10-15T15:51:22;18.30;1.00
11091;DHT22;5599;52.210;21.046;2022-10-15T15:53:52;18.30;1.00
11091;DHT22;5599;52.210;21.046;2022-10-15T15:56:21;18.20;1.00
11091;DHT22;5599;52.210;21.046;2022-10-15T15:58:52;18.20;1.00
11091;DHT22;5599;52.210;21.046;2022-10-15T16:01:21;18.20;1.40
11091;DHT22;5599;52.210;21.046;2022-10-15T16:03:50;18.10;1.00
11091;DHT22;5599;52.210;21.046;2022-10-15T16:06:20;18.20;1.00
11091;DHT22;5599;52.210;21.046;2022-10-15T16:08:50;18.10;1.00
11091;DHT22;5599;52.210;21.046;2022-10-15T16:11:20;18.10;1.00
11091;DHT22;5599;52.210;21.046;2022-10-15T16:13:49;18.20;1.00
11091;DHT22;5599;52.210;21.046;2022-10-15T16:16:20;18.10;27.70
11091;DHT22;5599;52.210;21.046;2022-10-15T16:18:49;18.10;43.60
11091;DHT22;5599;52.210;21.046;2022-10-15T16:21:20;18.00;99.90
11091;DHT22;5599;52.210;21.046;2022-10-15T16:23:50;18.00;99.90
11091;DHT22;5599;52.210;21.046;2022-10-15T16:26:20;18.00;99.90